createdAt,value
2018-07-08T00:01:38.660Z,75.20
2018-07-08T00:04:07.450Z,75.40
2018-07-08T00:06:36.267Z,75.60
2018-07-08T00:09:06.493Z,75.70
2018-07-08T00:11:35.310Z,75.80
2018-07-08T00:14:04.109Z,75.90
2018-07-08T00:16:32.917Z,75.90
2018-07-08T00:19:01.714Z,76.10
2018-07-08T00:21:30.526Z,76.20
2018-07-08T00:23:59.326Z,76.80
2018-07-08T00:26:28.658Z,77.10
2018-07-08T00:28:57.418Z,77.50
2018-07-08T00:31:26.312Z,77.80
2018-07-08T00:33:55.125Z,78.40
2018-07-08T00:36:23.940Z,78.80
2018-07-08T00:38:52.747Z,79.30
2018-07-08T00:41:21.554Z,80.40
2018-07-08T00:43:50.490Z,80.20
2018-07-08T00:46:19.298Z,80.80
2018-07-08T00:48:48.108Z,81.10
2018-07-08T00:51:16.913Z,81.60
2018-07-08T00:53:45.724Z,82.10
2018-07-08T00:56:14.531Z,82.20
2018-07-08T00:58:43.630Z,82.90
2018-07-08T01:01:12.748Z,83.40
2018-07-08T01:03:41.544Z,84.40
2018-07-08T01:06:10.355Z,84.00
2018-07-08T01:08:39.151Z,84.50
2018-07-08T01:11:07.962Z,85.20
2018-07-08T01:13:36.749Z,86.50
2018-07-08T01:16:05.585Z,86.70
2018-07-08T01:18:34.379Z,87.30
2018-07-08T01:21:03.188Z,87.90
2018-07-08T01:23:31.980Z,88.30
2018-07-08T01:26:12.333Z,88.60
2018-07-08T01:28:42.023Z,89.00
2018-07-08T01:31:12.152Z,89.20
2018-07-08T01:33:41.131Z,89.20
2018-07-08T01:36:10.440Z,89.50
2018-07-08T01:38:39.231Z,89.70
2018-07-08T01:41:08.830Z,89.80
2018-07-08T01:43:37.628Z,90.10
2018-07-08T01:46:06.441Z,90.10
2018-07-08T01:48:35.236Z,90.00
2018-07-08T01:51:04.043Z,90.00
2018-07-08T01:53:32.865Z,90.10
2018-07-08T01:56:01.668Z,90.00
2018-07-08T01:58:30.474Z,90.00
2018-07-08T02:00:59.278Z,90.20
2018-07-08T02:03:28.105Z,90.30
2018-07-08T02:05:56.908Z,90.30
2018-07-08T02:08:25.707Z,90.40
2018-07-08T02:10:54.546Z,90.50
2018-07-08T02:13:23.348Z,90.50
2018-07-08T02:15:52.150Z,90.50
2018-07-08T02:18:20.961Z,90.70
2018-07-08T02:20:49.768Z,90.90
2018-07-08T02:23:18.587Z,90.90
2018-07-08T02:25:47.392Z,91.00
2018-07-08T02:28:16.199Z,91.00
2018-07-08T02:30:45.005Z,91.10
2018-07-08T02:33:13.820Z,91.10
2018-07-08T02:35:42.629Z,91.10
2018-07-08T02:38:11.588Z,91.10
2018-07-08T02:40:40.393Z,91.10
2018-07-08T02:43:09.197Z,91.00
2018-07-08T02:45:38.002Z,91.00
2018-07-08T02:48:07.696Z,91.00
2018-07-08T02:50:36.488Z,90.90
2018-07-08T02:53:05.952Z,90.90
2018-07-08T02:55:34.916Z,90.90
2018-07-08T02:58:03.736Z,90.80
2018-07-08T03:00:32.568Z,90.70
2018-07-08T03:03:01.366Z,90.60
2018-07-08T03:05:30.189Z,90.60
2018-07-08T03:07:59.007Z,90.50
2018-07-08T03:10:27.829Z,91.00
2018-07-08T03:12:56.639Z,90.70
2018-07-08T03:15:25.475Z,90.60
2018-07-08T03:17:54.315Z,90.60
2018-07-08T03:20:23.501Z,90.60
2018-07-08T03:22:52.320Z,90.70
2018-07-08T03:25:21.123Z,90.70
2018-07-08T03:27:49.944Z,90.70
2018-07-08T03:30:18.756Z,90.70
2018-07-08T03:32:47.583Z,90.60
2018-07-08T03:35:16.405Z,90.60
2018-07-08T03:37:45.245Z,90.50
2018-07-08T03:40:14.040Z,90.50
2018-07-08T03:42:42.881Z,90.50
2018-07-08T03:45:11.704Z,90.50
2018-07-08T03:47:40.523Z,90.50
2018-07-08T03:50:09.336Z,90.50
2018-07-08T03:52:38.163Z,90.40
2018-07-08T03:55:06.999Z,90.30
2018-07-08T03:57:35.827Z,90.30
2018-07-08T04:00:04.700Z,90.20
2018-07-08T04:02:33.523Z,90.10
2018-07-08T04:05:02.323Z,90.10
2018-07-08T04:07:31.142Z,90.10
2018-07-08T04:09:59.947Z,90.20
2018-07-08T04:12:28.857Z,90.10
2018-07-08T04:14:57.662Z,90.00
2018-07-08T04:17:26.470Z,90.00
2018-07-08T04:19:55.267Z,90.00
2018-07-08T04:22:24.080Z,89.70
2018-07-08T04:24:52.885Z,89.80
2018-07-08T04:27:21.699Z,89.90
2018-07-08T04:29:50.504Z,89.80
2018-07-08T04:32:19.373Z,89.60
2018-07-08T04:34:48.185Z,89.30
2018-07-08T04:37:16.998Z,89.00
2018-07-08T04:39:45.791Z,88.70
2018-07-08T04:42:14.591Z,88.50
2018-07-08T04:44:43.408Z,88.10
2018-07-08T04:47:12.212Z,87.10
2018-07-08T04:49:41.016Z,86.10
2018-07-08T04:52:09.873Z,85.60
2018-07-08T04:54:38.988Z,85.40
2018-07-08T04:57:07.770Z,85.40
2018-07-08T04:59:36.580Z,85.10
2018-07-08T05:02:05.566Z,84.90
2018-07-08T05:04:34.372Z,84.00
2018-07-08T05:07:03.176Z,82.80
2018-07-08T05:09:31.979Z,81.20
2018-07-08T05:12:00.871Z,79.50
2018-07-08T05:14:29.667Z,78.20
2018-07-08T05:16:58.451Z,78.00
2018-07-08T05:19:27.265Z,77.90
2018-07-08T05:21:56.075Z,77.50
2018-07-08T05:24:24.888Z,77.20
2018-07-08T05:26:53.911Z,77.00
2018-07-08T05:29:22.907Z,75.90
2018-07-08T05:31:51.706Z,74.10
2018-07-08T05:34:20.506Z,70.30
2018-07-08T05:36:49.290Z,65.60
2018-07-08T05:39:18.136Z,60.70
2018-07-08T05:41:46.930Z,56.60
2018-07-08T05:44:15.732Z,53.70
2018-07-08T05:46:44.518Z,52.10
2018-07-08T05:49:13.320Z,51.50
2018-07-08T05:51:42.103Z,51.70
2018-07-08T05:54:10.920Z,52.30
2018-07-08T05:56:39.726Z,52.70
2018-07-08T05:59:08.519Z,52.50
2018-07-08T06:01:37.311Z,52.70
2018-07-08T06:04:06.135Z,50.70
2018-07-08T06:06:34.936Z,50.60
2018-07-08T06:09:04.231Z,49.00
2018-07-08T06:11:33.017Z,49.60
2018-07-08T06:14:01.808Z,49.70
2018-07-08T06:16:30.606Z,49.00
2018-07-08T06:18:59.647Z,47.90
2018-07-08T06:21:28.447Z,48.00
2018-07-08T06:23:57.252Z,47.80
2018-07-08T06:26:26.052Z,48.40
2018-07-08T06:28:54.856Z,47.80
2018-07-08T06:31:23.651Z,46.80
2018-07-08T06:33:52.455Z,46.90
2018-07-08T06:36:21.256Z,46.40
2018-07-08T06:38:50.047Z,44.80
2018-07-08T06:41:18.843Z,44.70
2018-07-08T06:43:47.763Z,44.20
2018-07-08T06:46:16.547Z,44.10
2018-07-08T06:48:45.361Z,43.40
2018-07-08T06:51:14.168Z,42.30
2018-07-08T06:53:42.968Z,41.10
2018-07-08T06:58:40.247Z,40.80
2018-07-08T07:01:09.044Z,40.90
2018-07-08T07:03:37.852Z,41.10
2018-07-08T07:06:06.718Z,42.50
2018-07-08T07:08:35.530Z,43.50
2018-07-08T07:11:04.324Z,43.20
2018-07-08T07:13:33.122Z,43.30
2018-07-08T07:16:01.915Z,43.20
2018-07-08T07:18:30.743Z,44.70
2018-07-08T07:20:59.540Z,46.80
2018-07-08T07:23:28.353Z,50.40
2018-07-08T07:25:57.243Z,53.30
2018-07-08T07:28:26.072Z,55.90
2018-07-08T07:30:54.851Z,58.10
2018-07-08T07:33:23.671Z,57.40
2018-07-08T07:35:52.471Z,58.50
2018-07-08T07:38:21.267Z,58.50
2018-07-08T07:40:50.078Z,58.20
2018-07-08T07:43:19.108Z,58.80
2018-07-08T07:45:47.920Z,58.80
2018-07-08T07:48:17.092Z,58.70
2018-07-08T07:50:45.880Z,59.30
2018-07-08T07:53:14.672Z,58.50
2018-07-08T07:55:43.474Z,58.90
2018-07-08T07:58:12.274Z,58.70
2018-07-08T08:00:41.089Z,58.00
2018-07-08T08:03:09.919Z,58.10
2018-07-08T08:05:38.728Z,57.30
2018-07-08T08:08:07.564Z,55.70
2018-07-08T08:10:36.394Z,54.40
2018-07-08T08:13:05.260Z,53.70
2018-07-08T08:15:34.019Z,53.40
2018-07-08T08:18:02.828Z,51.60
2018-07-08T08:20:31.639Z,49.80
2018-07-08T08:23:00.449Z,50.10
2018-07-08T08:25:29.292Z,50.20
2018-07-08T08:27:58.152Z,50.00
2018-07-08T08:30:26.972Z,51.10
2018-07-08T08:32:55.781Z,51.10
2018-07-08T08:35:24.587Z,51.80
2018-07-08T08:37:55.405Z,52.40
2018-07-08T08:40:26.531Z,52.50
2018-07-08T08:42:55.700Z,52.90
2018-07-08T08:45:25.823Z,53.50
2018-07-08T08:47:54.645Z,53.40
2018-07-08T08:50:23.460Z,54.10
2018-07-08T08:52:52.421Z,54.80
2018-07-08T08:55:21.229Z,55.70
2018-07-08T08:57:50.031Z,56.10
2018-07-08T09:00:19.584Z,56.50
2018-07-08T09:02:48.404Z,55.90
2018-07-08T09:05:17.232Z,55.60
2018-07-08T09:07:46.050Z,55.70
2018-07-08T09:10:14.859Z,56.00
2018-07-08T09:12:43.680Z,57.10
2018-07-08T09:15:12.511Z,57.50
2018-07-08T09:17:41.321Z,57.70
2018-07-08T09:20:10.131Z,57.90
2018-07-08T09:22:38.935Z,58.10
2018-07-08T09:25:07.760Z,58.30
2018-07-08T09:27:36.680Z,58.70
2018-07-08T09:30:05.481Z,58.80
2018-07-08T09:32:34.299Z,58.40
2018-07-08T09:35:03.116Z,58.10
2018-07-08T09:37:31.924Z,57.80
2018-07-08T09:40:00.779Z,57.70
2018-07-08T09:42:29.598Z,57.50
2018-07-08T09:44:58.415Z,56.90
2018-07-08T09:49:55.739Z,56.70
2018-07-08T09:52:24.539Z,56.80
2018-07-08T09:54:53.375Z,56.80
2018-07-08T09:57:22.331Z,57.00
2018-07-08T09:59:51.162Z,56.90
2018-07-08T10:02:19.991Z,56.30
2018-07-08T10:04:48.999Z,56.80
2018-07-08T10:07:18.188Z,57.00
2018-07-08T10:09:46.991Z,56.60
2018-07-08T10:12:15.802Z,55.90
2018-07-08T10:14:44.632Z,56.10
2018-07-08T10:17:13.432Z,55.60
2018-07-08T10:19:42.336Z,56.00
2018-07-08T10:22:11.111Z,55.90
2018-07-08T10:24:39.935Z,54.90
2018-07-08T10:27:23.232Z,53.30
2018-07-08T10:29:52.044Z,52.00
2018-07-08T10:34:49.482Z,50.30
2018-07-08T10:37:18.312Z,50.80
2018-07-08T10:39:47.119Z,51.00
2018-07-08T10:42:15.927Z,51.50
2018-07-08T10:44:44.744Z,50.90
2018-07-08T10:47:13.571Z,51.70
2018-07-08T10:49:42.381Z,52.20
2018-07-08T10:52:11.196Z,52.00
2018-07-08T10:54:40.017Z,52.30
2018-07-08T10:57:08.834Z,52.20
2018-07-08T10:59:37.646Z,52.30
2018-07-08T11:02:06.456Z,52.00
2018-07-08T11:04:35.330Z,51.20
2018-07-08T11:07:04.135Z,51.70
2018-07-08T11:09:32.928Z,51.80
2018-07-08T11:12:01.740Z,51.90
2018-07-08T11:14:30.540Z,52.10
2018-07-08T11:16:59.356Z,52.00
2018-07-08T11:19:28.143Z,51.80
2018-07-08T11:21:56.978Z,52.00
2018-07-08T11:24:25.751Z,52.60
2018-07-08T11:26:54.577Z,52.80
2018-07-08T11:29:23.371Z,52.90
2018-07-08T11:31:52.176Z,52.80
2018-07-08T11:34:20.963Z,52.20
2018-07-08T11:36:49.768Z,52.00
2018-07-08T11:39:18.576Z,52.10
2018-07-08T11:41:47.394Z,52.50
2018-07-08T11:44:16.185Z,52.70
2018-07-08T11:46:44.994Z,53.40
2018-07-08T11:49:13.791Z,54.00
2018-07-08T11:51:42.610Z,54.90
2018-07-08T11:54:11.403Z,55.50
2018-07-08T11:56:40.204Z,55.60
2018-07-08T11:59:08.993Z,56.10
2018-07-08T12:01:37.804Z,55.90
2018-07-08T12:06:35.365Z,56.30
2018-07-08T12:09:04.720Z,56.00
2018-07-08T12:11:33.551Z,56.70
2018-07-08T12:14:02.383Z,57.20
2018-07-08T12:16:31.329Z,57.20
2018-07-08T12:19:00.128Z,57.00
2018-07-08T12:21:28.988Z,56.60
2018-07-08T12:23:57.871Z,56.70
2018-07-08T12:26:26.679Z,56.00
2018-07-08T12:28:55.627Z,56.30
2018-07-08T12:31:24.485Z,56.60
2018-07-08T12:33:53.290Z,56.70
2018-07-08T12:36:22.106Z,56.90
2018-07-08T12:38:51.339Z,56.60
2018-07-08T12:41:20.156Z,56.30
2018-07-08T12:43:48.977Z,55.90
2018-07-08T12:46:17.793Z,55.90
2018-07-08T12:48:46.676Z,55.60
2018-07-08T12:51:15.496Z,55.80
2018-07-08T12:53:44.371Z,55.60
2018-07-08T12:56:13.323Z,55.80
2018-07-08T12:58:42.148Z,55.30
2018-07-08T13:01:10.948Z,55.10
2018-07-08T13:03:39.799Z,55.50
2018-07-08T13:06:08.628Z,55.30
2018-07-08T13:08:37.478Z,55.40
2018-07-08T13:11:06.367Z,55.80
2018-07-08T13:13:35.177Z,55.80
2018-07-08T13:16:04.073Z,55.90
2018-07-08T13:18:32.930Z,55.30
2018-07-08T13:21:01.737Z,55.20
2018-07-08T13:23:30.553Z,54.60
2018-07-08T13:25:59.390Z,54.00
2018-07-08T13:28:28.384Z,53.50
2018-07-08T13:30:57.208Z,53.00
2018-07-08T13:33:26.328Z,52.90
2018-07-08T13:35:55.253Z,53.00
2018-07-08T13:38:24.167Z,52.90
2018-07-08T13:40:52.988Z,53.20
2018-07-08T13:43:21.830Z,52.90
2018-07-08T13:45:50.640Z,52.30
2018-07-08T13:48:19.467Z,52.30
2018-07-08T13:50:48.284Z,51.80
2018-07-08T13:53:17.108Z,51.80
2018-07-08T13:55:45.972Z,51.10
2018-07-08T13:58:14.768Z,50.80
2018-07-08T14:00:43.572Z,51.10
2018-07-08T14:03:12.460Z,50.80
2018-07-08T14:05:41.280Z,50.60
2018-07-08T14:08:10.099Z,50.30
2018-07-08T14:10:39.615Z,50.10
2018-07-08T14:13:08.907Z,50.30
2018-07-08T14:15:37.967Z,50.60
2018-07-08T14:18:07.063Z,50.70
2018-07-08T14:20:35.944Z,50.30
2018-07-08T14:23:04.727Z,50.20
2018-07-08T14:25:33.569Z,50.20
2018-07-08T14:28:02.363Z,50.60
2018-07-08T14:30:31.235Z,50.30
2018-07-08T14:33:00.475Z,51.00
2018-07-08T14:35:29.283Z,51.20
2018-07-08T14:40:26.579Z,50.70
2018-07-08T14:42:55.407Z,50.70
2018-07-08T14:45:24.288Z,50.40
2018-07-08T14:47:53.091Z,49.80
2018-07-08T14:50:21.912Z,49.60
2018-07-08T14:52:50.723Z,49.80
2018-07-08T14:55:19.556Z,50.20
2018-07-08T14:57:48.377Z,50.80
2018-07-08T15:00:17.187Z,50.90
2018-07-08T15:02:46.004Z,50.60
2018-07-08T15:05:14.825Z,50.60
2018-07-08T15:07:43.632Z,50.00
2018-07-08T15:10:12.447Z,50.00
2018-07-08T15:12:41.261Z,50.60
2018-07-08T15:15:10.072Z,50.60
2018-07-08T15:17:38.891Z,50.90
2018-07-08T15:20:07.803Z,50.40
2018-07-08T15:22:36.629Z,50.50
2018-07-08T15:25:05.522Z,50.40
2018-07-08T15:27:34.308Z,50.00
2018-07-08T15:30:03.128Z,49.70
2018-07-08T15:32:32.082Z,49.70
2018-07-08T15:35:01.120Z,49.20
2018-07-08T15:37:29.943Z,48.80
2018-07-08T15:39:58.758Z,49.20
2018-07-08T15:42:27.623Z,49.10
2018-07-08T15:44:56.436Z,48.80
2018-07-08T15:47:25.292Z,49.10
2018-07-08T15:49:54.123Z,49.40
2018-07-08T15:52:22.888Z,49.40
2018-07-08T15:54:51.718Z,49.60
2018-07-08T15:57:20.561Z,49.40
2018-07-08T15:59:49.373Z,49.20
2018-07-08T16:02:18.171Z,49.20
2018-07-08T16:04:47.035Z,49.20
2018-07-08T16:07:15.848Z,49.50
2018-07-08T16:09:44.653Z,50.10
2018-07-08T16:12:13.756Z,50.30
2018-07-08T16:14:42.572Z,50.60
2018-07-08T16:17:11.390Z,50.70
2018-07-08T16:19:40.177Z,51.00
2018-07-08T16:22:08.976Z,51.10
2018-07-08T16:24:37.848Z,51.00
2018-07-08T16:27:07.015Z,51.00
2018-07-08T16:29:35.814Z,51.40
2018-07-08T16:32:04.620Z,51.40
2018-07-08T16:34:33.419Z,51.60
2018-07-08T16:37:02.211Z,51.90
2018-07-08T16:39:31.059Z,51.70
2018-07-08T16:42:00.289Z,52.20
2018-07-08T16:44:29.172Z,52.20
2018-07-08T16:46:57.960Z,52.70
2018-07-08T16:49:26.759Z,52.40
2018-07-08T16:51:55.557Z,52.40
2018-07-08T16:54:24.360Z,52.40
2018-07-08T16:59:21.788Z,52.40
2018-07-08T17:01:50.584Z,52.50
2018-07-08T17:04:19.386Z,52.50
2018-07-08T17:06:48.186Z,52.40
2018-07-08T17:09:16.996Z,52.70
2018-07-08T17:11:45.947Z,52.30
2018-07-08T17:14:14.743Z,52.50
2018-07-08T17:16:43.594Z,52.90
2018-07-08T17:19:12.475Z,52.50
2018-07-08T17:21:41.350Z,52.40
2018-07-08T17:24:10.255Z,52.80
2018-07-08T17:26:39.159Z,53.10
2018-07-08T17:29:08.047Z,53.00
2018-07-08T17:31:37.148Z,53.00
2018-07-08T17:34:05.979Z,53.10
2018-07-08T17:36:34.776Z,52.90
2018-07-08T17:39:03.856Z,52.80
2018-07-08T17:41:32.655Z,52.90
2018-07-08T17:44:01.475Z,53.20
2018-07-08T17:46:30.404Z,53.40
2018-07-08T17:48:59.256Z,53.30
2018-07-08T17:51:28.140Z,53.10
2018-07-08T17:53:56.958Z,53.30
2018-07-08T17:56:25.754Z,53.40
2018-07-08T17:58:54.572Z,53.50
2018-07-08T18:01:23.501Z,53.70
2018-07-08T18:03:52.298Z,53.40
2018-07-08T18:06:21.188Z,53.70
2018-07-08T18:08:50.125Z,53.70
2018-07-08T18:11:18.968Z,53.70
2018-07-08T18:13:47.790Z,53.80
2018-07-08T18:16:16.613Z,54.00
2018-07-08T18:18:45.664Z,54.20
2018-07-08T18:21:14.532Z,54.10
2018-07-08T18:23:43.348Z,54.20
2018-07-08T18:26:12.161Z,54.50
2018-07-08T18:28:41.380Z,54.60
2018-07-08T18:31:10.184Z,54.40
2018-07-08T18:33:39.000Z,54.70
2018-07-08T18:36:07.911Z,54.80
2018-07-08T18:38:36.735Z,55.00
2018-07-08T18:41:05.842Z,54.90
2018-07-08T18:43:34.681Z,55.10
2018-07-08T18:46:03.765Z,55.30
2018-07-08T18:48:36.215Z,55.30
2018-07-08T18:51:05.118Z,55.20
2018-07-08T18:53:33.931Z,55.30
2018-07-08T18:56:02.752Z,55.60
2018-07-08T18:58:31.609Z,55.70
2018-07-08T19:03:30.044Z,55.80
2018-07-08T19:05:59.025Z,56.10
2018-07-08T19:08:27.861Z,56.40
2018-07-08T19:10:56.675Z,56.50
2018-07-08T19:13:25.755Z,56.60
2018-07-08T19:15:54.577Z,56.80
2018-07-08T19:18:23.431Z,56.50
2018-07-08T19:20:52.272Z,56.50
2018-07-08T19:23:21.084Z,56.60
2018-07-08T19:25:49.904Z,56.60
2018-07-08T19:28:18.917Z,56.70
2018-07-08T19:30:48.753Z,57.00
2018-07-08T19:35:46.195Z,57.00
2018-07-08T19:38:15.061Z,56.90
2018-07-08T19:40:43.991Z,56.90
2018-07-08T19:43:13.284Z,56.80
2018-07-08T19:45:42.228Z,56.70
2018-07-08T19:48:11.144Z,56.70
2018-07-08T19:50:40.145Z,56.70
2018-07-08T19:53:09.861Z,56.70
2018-07-08T19:55:38.684Z,56.80
2018-07-08T19:58:08.012Z,57.00
2018-07-08T20:00:36.864Z,57.50
2018-07-08T20:03:05.678Z,56.80
2018-07-08T20:05:34.528Z,56.80
2018-07-08T20:08:03.287Z,56.90
2018-07-08T20:10:32.337Z,57.00
2018-07-08T20:15:29.744Z,57.70
2018-07-08T20:17:58.751Z,56.80
2018-07-08T20:20:27.565Z,56.70
2018-07-08T20:22:56.471Z,56.60
2018-07-08T20:25:25.451Z,56.70
2018-07-08T20:27:54.252Z,56.70
2018-07-08T20:30:23.071Z,56.70
2018-07-08T20:32:51.872Z,56.80
2018-07-08T20:35:20.774Z,57.00
2018-07-08T20:37:49.511Z,57.10
2018-07-08T20:40:18.338Z,57.70
2018-07-08T20:42:47.509Z,57.30
2018-07-08T20:45:16.320Z,57.50
2018-07-08T20:47:45.108Z,57.60
2018-07-08T20:50:14.007Z,57.70
2018-07-08T20:52:42.867Z,57.80
2018-07-08T20:55:11.636Z,58.00
2018-07-08T20:57:40.438Z,58.10
2018-07-08T21:00:09.248Z,58.50
2018-07-08T21:02:38.047Z,58.50
2018-07-08T21:05:06.846Z,58.70
2018-07-08T21:07:35.665Z,58.80
2018-07-08T21:10:04.684Z,58.90
2018-07-08T21:12:33.664Z,59.10
2018-07-08T21:15:02.820Z,59.20
2018-07-08T21:17:31.736Z,59.30
2018-07-08T21:20:00.572Z,59.50
2018-07-08T21:22:29.784Z,59.50
2018-07-08T21:24:58.707Z,59.60
2018-07-08T21:27:27.567Z,59.70
2018-07-08T21:29:56.380Z,59.90
2018-07-08T21:32:25.199Z,60.00
2018-07-08T21:34:54.002Z,60.00
2018-07-08T21:37:22.832Z,60.30
2018-07-08T21:39:51.631Z,60.40
2018-07-08T21:42:20.495Z,60.70
2018-07-08T21:44:49.459Z,60.80
2018-07-08T21:47:18.826Z,60.90
2018-07-08T21:49:47.635Z,61.20
2018-07-08T21:52:16.466Z,61.40
2018-07-08T21:54:45.556Z,61.50
2018-07-08T21:57:14.397Z,61.70
2018-07-08T21:59:43.171Z,62.60
2018-07-08T22:02:17.792Z,62.10
2018-07-08T22:04:46.774Z,62.20
2018-07-08T22:07:22.503Z,62.30
2018-07-08T22:09:52.385Z,62.50
2018-07-08T22:12:21.192Z,62.90
2018-07-08T22:14:50.010Z,63.00
2018-07-08T22:17:18.895Z,63.20
2018-07-08T22:19:47.703Z,63.40
2018-07-08T22:22:16.512Z,63.50
2018-07-08T22:27:13.840Z,63.80
2018-07-08T22:29:42.753Z,63.90
2018-07-08T22:32:11.543Z,64.10
2018-07-08T22:34:40.348Z,64.20
2018-07-08T22:37:09.164Z,64.40
2018-07-08T22:39:38.040Z,64.60
2018-07-08T22:42:06.804Z,64.80
2018-07-08T22:44:35.620Z,64.90
2018-07-08T22:47:04.525Z,65.00
2018-07-08T22:49:33.340Z,65.40
2018-07-08T22:52:02.219Z,65.60
2018-07-08T22:54:31.044Z,65.90
2018-07-08T22:56:59.871Z,66.40
2018-07-08T22:59:29.203Z,66.60
2018-07-08T23:02:09.576Z,66.90
2018-07-08T23:04:38.384Z,67.20
2018-07-08T23:07:07.191Z,67.50
2018-07-08T23:09:35.996Z,67.80
2018-07-08T23:12:04.802Z,68.10
2018-07-08T23:14:33.825Z,68.20
2018-07-08T23:17:02.627Z,68.40
2018-07-08T23:19:31.419Z,68.80
2018-07-08T23:22:00.215Z,69.20
2018-07-08T23:24:29.135Z,69.60
2018-07-08T23:26:57.996Z,69.70
2018-07-08T23:29:26.796Z,69.90
2018-07-08T23:31:55.611Z,70.10
2018-07-08T23:34:24.409Z,70.40
2018-07-08T23:36:53.224Z,70.60
2018-07-08T23:39:22.012Z,70.90
2018-07-08T23:41:50.803Z,71.10
2018-07-08T23:44:19.600Z,71.50
2018-07-08T23:46:48.399Z,71.60
2018-07-08T23:49:17.199Z,72.10
2018-07-08T23:51:46.010Z,72.30
2018-07-08T23:54:14.804Z,72.80
2018-07-08T23:56:43.608Z,73.10
2018-07-08T23:59:12.412Z,73.40
